sensor_id;sensor_type;location;lat;lon;timestamp;P1;durP1;ratioP1;P2;durP2;ratioP2
21122;SDS011;10719;48.130;11.630;2022-10-16T00:01:10;7.32;;;1.08;;
21122;SDS011;10719;48.130;11.630;2022-10-16T00:03:38;3.65;;;0.80;;
21122;SDS011;10719;48.130;11.630;2022-10-16T00:06:04;7.38;;;1.33;;
21122;SDS011;10719;48.130;11.630;2022-10-16T00:08:31;2.28;;;0.80;;
21122;SDS011;10719;48.130;11.630;2022-10-16T00:11:01;3.55;;;0.90;;
21122;SDS011;10719;48.130;11.630;2022-10-16T00:13:33;2.13;;;1.00;;
21122;SDS011;10719;48.130;11.630;2022-10-16T00:16:00;4.75;;;0.95;;
21122;SDS011;10719;48.130;11.630;2022-10-16T00:18:26;0.95;;;0.60;;
21122;SDS011;10719;48.130;11.630;2022-10-16T00:20:53;1.83;;;0.82;;
21122;SDS011;10719;48.130;11.630;2022-10-16T00:23:19;1.60;;;0.77;;
21122;SDS011;10719;48.130;11.630;2022-10-16T00:25:45;2.67;;;0.90;;
21122;SDS011;10719;48.130;11.630;2022-10-16T00:28:23;2.03;;;0.75;;
21122;SDS011;10719;48.130;11.630;2022-10-16T00:30:49;1.50;;;0.70;;
21122;SDS011;10719;48.130;11.630;2022-10-16T00:33:14;1.95;;;0.90;;
21122;SDS011;10719;48.130;11.630;2022-10-16T00:35:40;1.48;;;0.77;;
21122;SDS011;10719;48.130;11.630;2022-10-16T00:38:05;0.90;;;0.60;;
21122;SDS011;10719;48.130;11.630;2022-10-16T00:40:31;0.77;;;0.50;;
21122;SDS011;10719;48.130;11.630;2022-10-16T00:42:57;3.45;;;1.33;;
21122;SDS011;10719;48.130;11.630;2022-10-16T00:45:22;2.17;;;0.88;;
21122;SDS011;10719;48.130;11.630;2022-10-16T00:47:48;2.30;;;0.80;;
21122;SDS011;10719;48.130;11.630;2022-10-16T00:50:27;0.98;;;0.80;;
21122;SDS011;10719;48.130;11.630;2022-10-16T00:52:56;8.90;;;1.13;;
21122;SDS011;10719;48.130;11.630;2022-10-16T00:55:23;1.27;;;0.68;;
21122;SDS011;10719;48.130;11.630;2022-10-16T00:57:49;5.55;;;0.95;;
21122;SDS011;10719;48.130;11.630;2022-10-16T01:00:17;2.47;;;1.30;;
21122;SDS011;10719;48.130;11.630;2022-10-16T01:02:51;1.33;;;0.52;;
21122;SDS011;10719;48.130;11.630;2022-10-16T01:05:22;1.98;;;0.80;;
21122;SDS011;10719;48.130;11.630;2022-10-16T01:13:18;2.30;;;0.82;;
21122;SDS011;10719;48.130;11.630;2022-10-16T01:21:36;1.02;;;0.80;;
21122;SDS011;10719;48.130;11.630;2022-10-16T01:34:48;1.60;;;0.98;;
21122;SDS011;10719;48.130;11.630;2022-10-16T01:37:44;1.77;;;1.00;;
21122;SDS011;10719;48.130;11.630;2022-10-16T01:40:11;1.63;;;0.68;;
21122;SDS011;10719;48.130;11.630;2022-10-16T01:42:40;2.40;;;1.08;;
21122;SDS011;10719;48.130;11.630;2022-10-16T01:45:11;0.80;;;0.60;;
21122;SDS011;10719;48.130;11.630;2022-10-16T01:47:39;5.93;;;1.08;;
21122;SDS011;10719;48.130;11.630;2022-10-16T01:50:06;1.77;;;0.70;;
21122;SDS011;10719;48.130;11.630;2022-10-16T01:52:37;2.47;;;0.80;;
21122;SDS011;10719;48.130;11.630;2022-10-16T01:55:05;1.73;;;0.85;;
21122;SDS011;10719;48.130;11.630;2022-10-16T01:57:33;1.75;;;0.82;;
21122;SDS011;10719;48.130;11.630;2022-10-16T02:00:05;1.45;;;0.68;;
21122;SDS011;10719;48.130;11.630;2022-10-16T02:02:33;1.80;;;0.75;;
21122;SDS011;10719;48.130;11.630;2022-10-16T02:05:21;1.38;;;0.75;;
21122;SDS011;10719;48.130;11.630;2022-10-16T02:07:55;1.48;;;0.60;;
21122;SDS011;10719;48.130;11.630;2022-10-16T02:10:21;1.33;;;0.65;;
21122;SDS011;10719;48.130;11.630;2022-10-16T02:12:59;1.83;;;0.95;;
21122;SDS011;10719;48.130;11.630;2022-10-16T02:15:30;3.00;;;0.95;;
21122;SDS011;10719;48.130;11.630;2022-10-16T02:17:55;2.10;;;0.80;;
21122;SDS011;10719;48.130;11.630;2022-10-16T02:20:27;2.50;;;0.90;;
21122;SDS011;10719;48.130;11.630;2022-10-16T02:22:54;1.15;;;0.68;;
21122;SDS011;10719;48.130;11.630;2022-10-16T02:25:27;2.05;;;0.98;;
21122;SDS011;10719;48.130;11.630;2022-10-16T02:30:43;2.03;;;0.98;;
21122;SDS011;10719;48.130;11.630;2022-10-16T02:33:14;1.10;;;0.65;;
21122;SDS011;10719;48.130;11.630;2022-10-16T02:35:41;2.10;;;1.00;;
21122;SDS011;10719;48.130;11.630;2022-10-16T02:38:10;1.88;;;1.15;;
21122;SDS011;10719;48.130;11.630;2022-10-16T02:40:36;0.55;;;0.50;;
21122;SDS011;10719;48.130;11.630;2022-10-16T02:43:03;2.10;;;0.80;;
21122;SDS011;10719;48.130;11.630;2022-10-16T02:45:30;1.77;;;0.70;;
21122;SDS011;10719;48.130;11.630;2022-10-16T02:47:56;0.90;;;0.60;;
21122;SDS011;10719;48.130;11.630;2022-10-16T02:50:22;1.90;;;0.88;;
21122;SDS011;10719;48.130;11.630;2022-10-16T02:52:49;0.90;;;0.57;;
21122;SDS011;10719;48.130;11.630;2022-10-16T02:55:14;1.40;;;0.75;;
21122;SDS011;10719;48.130;11.630;2022-10-16T02:57:40;2.13;;;0.55;;
21122;SDS011;10719;48.130;11.630;2022-10-16T03:00:09;2.25;;;0.65;;
21122;SDS011;10719;48.130;11.630;2022-10-16T03:02:38;3.53;;;1.42;;
21122;SDS011;10719;48.130;11.630;2022-10-16T03:05:04;1.90;;;0.75;;
21122;SDS011;10719;48.130;11.630;2022-10-16T03:07:30;2.70;;;0.90;;
21122;SDS011;10719;48.130;11.630;2022-10-16T03:09:55;0.90;;;0.60;;
21122;SDS011;10719;48.130;11.630;2022-10-16T03:12:21;1.42;;;0.65;;
21122;SDS011;10719;48.130;11.630;2022-10-16T03:14:47;0.60;;;0.60;;
21122;SDS011;10719;48.130;11.630;2022-10-16T03:17:13;0.88;;;0.65;;
21122;SDS011;10719;48.130;11.630;2022-10-16T03:19:41;4.78;;;0.90;;
21122;SDS011;10719;48.130;11.630;2022-10-16T03:22:07;1.73;;;0.88;;
21122;SDS011;10719;48.130;11.630;2022-10-16T03:24:33;1.33;;;0.63;;
21122;SDS011;10719;48.130;11.630;2022-10-16T03:26:58;2.80;;;0.70;;
21122;SDS011;10719;48.130;11.630;2022-10-16T03:29:25;1.30;;;0.73;;
21122;SDS011;10719;48.130;11.630;2022-10-16T03:31:50;1.15;;;0.60;;
21122;SDS011;10719;48.130;11.630;2022-10-16T03:34:16;2.60;;;0.80;;
21122;SDS011;10719;48.130;11.630;2022-10-16T03:36:42;2.03;;;0.73;;
21122;SDS011;10719;48.130;11.630;2022-10-16T03:39:07;1.40;;;0.80;;
21122;SDS011;10719;48.130;11.630;2022-10-16T03:41:33;8.13;;;0.90;;
21122;SDS011;10719;48.130;11.630;2022-10-16T03:43:58;2.67;;;0.50;;
21122;SDS011;10719;48.130;11.630;2022-10-16T03:46:24;1.00;;;0.70;;
21122;SDS011;10719;48.130;11.630;2022-10-16T03:48:49;2.35;;;1.42;;
21122;SDS011;10719;48.130;11.630;2022-10-16T03:51:15;0.82;;;0.50;;
21122;SDS011;10719;48.130;11.630;2022-10-16T03:53:41;1.27;;;0.73;;
21122;SDS011;10719;48.130;11.630;2022-10-16T03:56:06;1.35;;;0.88;;
21122;SDS011;10719;48.130;11.630;2022-10-16T03:58:32;3.35;;;0.80;;
21122;SDS011;10719;48.130;11.630;2022-10-16T04:00:57;0.70;;;0.60;;
21122;SDS011;10719;48.130;11.630;2022-10-16T04:03:23;1.85;;;0.70;;
21122;SDS011;10719;48.130;11.630;2022-10-16T04:05:49;0.90;;;0.70;;
21122;SDS011;10719;48.130;11.630;2022-10-16T04:08:14;1.17;;;0.70;;
21122;SDS011;10719;48.130;11.630;2022-10-16T04:10:42;0.63;;;0.45;;
21122;SDS011;10719;48.130;11.630;2022-10-16T04:13:08;4.22;;;1.17;;
21122;SDS011;10719;48.130;11.630;2022-10-16T04:15:34;0.52;;;0.47;;
21122;SDS011;10719;48.130;11.630;2022-10-16T04:18:00;1.95;;;0.80;;
21122;SDS011;10719;48.130;11.630;2022-10-16T04:20:25;2.20;;;0.88;;
21122;SDS011;10719;48.130;11.630;2022-10-16T04:22:51;0.65;;;0.50;;
21122;SDS011;10719;48.130;11.630;2022-10-16T04:25:16;1.63;;;0.80;;
21122;SDS011;10719;48.130;11.630;2022-10-16T04:27:42;3.83;;;0.95;;
21122;SDS011;10719;48.130;11.630;2022-10-16T04:30:08;0.75;;;0.50;;
21122;SDS011;10719;48.130;11.630;2022-10-16T04:32:35;1.05;;;0.75;;
21122;SDS011;10719;48.130;11.630;2022-10-16T04:35:01;1.15;;;0.65;;
21122;SDS011;10719;48.130;11.630;2022-10-16T04:37:27;3.88;;;0.70;;
21122;SDS011;10719;48.130;11.630;2022-10-16T04:39:53;2.58;;;1.05;;
21122;SDS011;10719;48.130;11.630;2022-10-16T04:42:19;1.42;;;0.68;;
21122;SDS011;10719;48.130;11.630;2022-10-16T04:44:45;2.45;;;0.82;;
21122;SDS011;10719;48.130;11.630;2022-10-16T04:47:11;2.28;;;0.95;;
21122;SDS011;10719;48.130;11.630;2022-10-16T04:49:37;1.42;;;0.77;;
21122;SDS011;10719;48.130;11.630;2022-10-16T04:52:03;4.47;;;1.08;;
21122;SDS011;10719;48.130;11.630;2022-10-16T04:54:29;1.52;;;0.90;;
21122;SDS011;10719;48.130;11.630;2022-10-16T04:56:54;1.88;;;0.73;;
21122;SDS011;10719;48.130;11.630;2022-10-16T04:59:20;2.25;;;0.90;;
21122;SDS011;10719;48.130;11.630;2022-10-16T05:01:47;1.00;;;0.75;;
21122;SDS011;10719;48.130;11.630;2022-10-16T05:04:12;3.83;;;1.08;;
21122;SDS011;10719;48.130;11.630;2022-10-16T05:06:40;1.08;;;0.70;;
21122;SDS011;10719;48.130;11.630;2022-10-16T05:09:06;2.38;;;1.00;;
21122;SDS011;10719;48.130;11.630;2022-10-16T05:11:32;2.53;;;0.90;;
21122;SDS011;10719;48.130;11.630;2022-10-16T05:13:58;1.17;;;0.70;;
21122;SDS011;10719;48.130;11.630;2022-10-16T05:16:24;2.53;;;1.20;;
21122;SDS011;10719;48.130;11.630;2022-10-16T05:18:50;4.47;;;1.13;;
21122;SDS011;10719;48.130;11.630;2022-10-16T05:21:17;1.70;;;0.68;;
21122;SDS011;10719;48.130;11.630;2022-10-16T05:23:42;2.15;;;0.88;;
21122;SDS011;10719;48.130;11.630;2022-10-16T05:26:08;0.80;;;0.60;;
21122;SDS011;10719;48.130;11.630;2022-10-16T05:28:34;1.52;;;0.73;;
21122;SDS011;10719;48.130;11.630;2022-10-16T05:31:04;1.95;;;0.82;;
21122;SDS011;10719;48.130;11.630;2022-10-16T05:33:33;2.35;;;1.02;;
21122;SDS011;10719;48.130;11.630;2022-10-16T05:36:02;2.10;;;0.60;;
21122;SDS011;10719;48.130;11.630;2022-10-16T05:38:30;0.80;;;0.52;;
21122;SDS011;10719;48.130;11.630;2022-10-16T05:40:55;1.48;;;0.60;;
21122;SDS011;10719;48.130;11.630;2022-10-16T05:43:21;1.10;;;0.60;;
21122;SDS011;10719;48.130;11.630;2022-10-16T05:45:54;2.20;;;0.75;;
21122;SDS011;10719;48.130;11.630;2022-10-16T05:48:21;2.25;;;0.85;;
21122;SDS011;10719;48.130;11.630;2022-10-16T05:50:47;2.53;;;0.85;;
21122;SDS011;10719;48.130;11.630;2022-10-16T05:53:13;2.05;;;0.90;;
21122;SDS011;10719;48.130;11.630;2022-10-16T05:55:38;1.38;;;0.73;;
21122;SDS011;10719;48.130;11.630;2022-10-16T05:58:04;3.55;;;1.10;;
21122;SDS011;10719;48.130;11.630;2022-10-16T06:00:29;2.28;;;1.10;;
21122;SDS011;10719;48.130;11.630;2022-10-16T06:02:55;1.80;;;1.00;;
21122;SDS011;10719;48.130;11.630;2022-10-16T06:05:21;1.67;;;0.80;;
21122;SDS011;10719;48.130;11.630;2022-10-16T06:07:46;1.10;;;0.85;;
21122;SDS011;10719;48.130;11.630;2022-10-16T06:10:12;2.53;;;1.10;;
21122;SDS011;10719;48.130;11.630;2022-10-16T06:12:37;3.92;;;0.75;;
21122;SDS011;10719;48.130;11.630;2022-10-16T06:15:03;1.02;;;0.60;;
21122;SDS011;10719;48.130;11.630;2022-10-16T06:17:29;1.10;;;0.65;;
21122;SDS011;10719;48.130;11.630;2022-10-16T06:19:55;1.33;;;0.70;;
21122;SDS011;10719;48.130;11.630;2022-10-16T06:22:20;4.10;;;0.98;;
21122;SDS011;10719;48.130;11.630;2022-10-16T06:24:46;0.60;;;0.50;;
21122;SDS011;10719;48.130;11.630;2022-10-16T06:27:12;3.38;;;1.30;;
21122;SDS011;10719;48.130;11.630;2022-10-16T06:29:38;7.28;;;1.30;;
21122;SDS011;10719;48.130;11.630;2022-10-16T06:32:03;2.17;;;0.80;;
21122;SDS011;10719;48.130;11.630;2022-10-16T06:34:29;3.05;;;0.90;;
21122;SDS011;10719;48.130;11.630;2022-10-16T06:36:54;2.42;;;1.08;;
21122;SDS011;10719;48.130;11.630;2022-10-16T06:39:20;2.75;;;1.10;;
21122;SDS011;10719;48.130;11.630;2022-10-16T06:41:46;11.77;;;5.68;;
21122;SDS011;10719;48.130;11.630;2022-10-16T06:44:11;27.30;;;11.18;;
21122;SDS011;10719;48.130;11.630;2022-10-16T06:46:37;13.52;;;5.43;;
21122;SDS011;10719;48.130;11.630;2022-10-16T06:49:02;20.77;;;8.55;;
21122;SDS011;10719;48.130;11.630;2022-10-16T06:51:28;23.75;;;11.13;;
21122;SDS011;10719;48.130;11.630;2022-10-16T06:53:55;7.78;;;3.15;;
21122;SDS011;10719;48.130;11.630;2022-10-16T06:56:25;4.03;;;1.40;;
21122;SDS011;10719;48.130;11.630;2022-10-16T06:58:52;3.72;;;1.42;;
21122;SDS011;10719;48.130;11.630;2022-10-16T07:01:19;1.75;;;1.00;;
21122;SDS011;10719;48.130;11.630;2022-10-16T07:03:46;2.25;;;0.80;;
21122;SDS011;10719;48.130;11.630;2022-10-16T07:06:13;2.78;;;1.30;;
21122;SDS011;10719;48.130;11.630;2022-10-16T07:08:40;1.13;;;0.70;;
21122;SDS011;10719;48.130;11.630;2022-10-16T07:11:09;2.80;;;1.20;;
21122;SDS011;10719;48.130;11.630;2022-10-16T07:13:36;3.35;;;1.05;;
21122;SDS011;10719;48.130;11.630;2022-10-16T07:16:07;2.20;;;1.02;;
21122;SDS011;10719;48.130;11.630;2022-10-16T07:18:36;4.22;;;1.23;;
21122;SDS011;10719;48.130;11.630;2022-10-16T07:21:07;3.50;;;1.33;;
21122;SDS011;10719;48.130;11.630;2022-10-16T07:23:45;1.55;;;1.00;;
21122;SDS011;10719;48.130;11.630;2022-10-16T07:26:14;3.10;;;1.23;;
21122;SDS011;10719;48.130;11.630;2022-10-16T07:28:40;3.22;;;1.10;;
21122;SDS011;10719;48.130;11.630;2022-10-16T07:31:09;3.10;;;1.15;;
21122;SDS011;10719;48.130;11.630;2022-10-16T07:33:36;2.13;;;1.00;;
21122;SDS011;10719;48.130;11.630;2022-10-16T07:36:03;5.40;;;2.33;;
21122;SDS011;10719;48.130;11.630;2022-10-16T07:38:29;14.65;;;5.45;;
21122;SDS011;10719;48.130;11.630;2022-10-16T07:40:56;4.78;;;2.03;;
21122;SDS011;10719;48.130;11.630;2022-10-16T07:43:23;4.40;;;1.52;;
21122;SDS011;10719;48.130;11.630;2022-10-16T07:45:48;6.47;;;1.95;;
21122;SDS011;10719;48.130;11.630;2022-10-16T07:48:15;3.20;;;1.15;;
21122;SDS011;10719;48.130;11.630;2022-10-16T07:50:42;3.35;;;1.38;;
21122;SDS011;10719;48.130;11.630;2022-10-16T07:53:08;1.77;;;0.80;;
21122;SDS011;10719;48.130;11.630;2022-10-16T07:55:34;1.48;;;0.98;;
21122;SDS011;10719;48.130;11.630;2022-10-16T07:58:00;1.27;;;0.80;;
21122;SDS011;10719;48.130;11.630;2022-10-16T08:00:25;2.47;;;1.27;;
21122;SDS011;10719;48.130;11.630;2022-10-16T08:02:51;2.38;;;1.17;;
21122;SDS011;10719;48.130;11.630;2022-10-16T08:05:17;1.55;;;0.90;;
21122;SDS011;10719;48.130;11.630;2022-10-16T08:07:42;2.25;;;1.15;;
21122;SDS011;10719;48.130;11.630;2022-10-16T08:10:16;5.38;;;1.60;;
21122;SDS011;10719;48.130;11.630;2022-10-16T08:12:44;1.05;;;0.65;;
21122;SDS011;10719;48.130;11.630;2022-10-16T08:15:09;4.68;;;1.48;;
21122;SDS011;10719;48.130;11.630;2022-10-16T08:17:35;2.35;;;1.00;;
21122;SDS011;10719;48.130;11.630;2022-10-16T08:20:01;4.22;;;1.20;;
21122;SDS011;10719;48.130;11.630;2022-10-16T08:22:26;1.95;;;0.90;;
21122;SDS011;10719;48.130;11.630;2022-10-16T08:24:52;1.63;;;1.10;;
21122;SDS011;10719;48.130;11.630;2022-10-16T08:27:18;2.95;;;1.02;;
21122;SDS011;10719;48.130;11.630;2022-10-16T08:29:43;1.98;;;1.00;;
21122;SDS011;10719;48.130;11.630;2022-10-16T08:32:09;2.03;;;1.00;;
21122;SDS011;10719;48.130;11.630;2022-10-16T08:34:35;2.55;;;1.05;;
21122;SDS011;10719;48.130;11.630;2022-10-16T08:37:00;1.67;;;1.00;;
21122;SDS011;10719;48.130;11.630;2022-10-16T08:39:26;2.63;;;1.00;;
21122;SDS011;10719;48.130;11.630;2022-10-16T08:45:12;2.08;;;0.98;;
21122;SDS011;10719;48.130;11.630;2022-10-16T08:51:11;4.03;;;1.00;;
21122;SDS011;10719;48.130;11.630;2022-10-16T08:56:48;14.20;;;5.10;;
21122;SDS011;10719;48.130;11.630;2022-10-16T08:59:14;1.75;;;0.90;;
21122;SDS011;10719;48.130;11.630;2022-10-16T09:01:44;1.40;;;0.70;;
21122;SDS011;10719;48.130;11.630;2022-10-16T09:06:55;5.72;;;1.55;;
21122;SDS011;10719;48.130;11.630;2022-10-16T09:12:10;2.90;;;1.15;;
21122;SDS011;10719;48.130;11.630;2022-10-16T09:15:17;2.08;;;0.88;;
21122;SDS011;10719;48.130;11.630;2022-10-16T09:18:05;1.77;;;0.82;;
21122;SDS011;10719;48.130;11.630;2022-10-16T09:20:51;2.13;;;0.93;;
21122;SDS011;10719;48.130;11.630;2022-10-16T09:23:41;1.52;;;0.80;;
21122;SDS011;10719;48.130;11.630;2022-10-16T09:26:11;1.02;;;0.60;;
21122;SDS011;10719;48.130;11.630;2022-10-16T09:28:39;3.97;;;1.10;;
21122;SDS011;10719;48.130;11.630;2022-10-16T09:31:05;1.80;;;0.90;;
21122;SDS011;10719;48.130;11.630;2022-10-16T09:33:36;2.03;;;0.90;;
21122;SDS011;10719;48.130;11.630;2022-10-16T09:36:04;2.88;;;1.35;;
21122;SDS011;10719;48.130;11.630;2022-10-16T09:38:31;3.47;;;1.00;;
21122;SDS011;10719;48.130;11.630;2022-10-16T09:40:59;2.33;;;1.13;;
21122;SDS011;10719;48.130;11.630;2022-10-16T09:43:33;2.72;;;0.80;;
21122;SDS011;10719;48.130;11.630;2022-10-16T09:46:25;2.05;;;0.90;;
21122;SDS011;10719;48.130;11.630;2022-10-16T09:49:05;3.13;;;0.90;;
21122;SDS011;10719;48.130;11.630;2022-10-16T09:51:45;2.17;;;0.90;;
21122;SDS011;10719;48.130;11.630;2022-10-16T09:54:15;2.20;;;0.90;;
21122;SDS011;10719;48.130;11.630;2022-10-16T09:56:42;2.72;;;0.70;;
21122;SDS011;10719;48.130;11.630;2022-10-16T09:59:14;1.85;;;0.90;;
21122;SDS011;10719;48.130;11.630;2022-10-16T10:01:45;4.18;;;1.15;;
21122;SDS011;10719;48.130;11.630;2022-10-16T10:04:13;1.75;;;0.93;;
21122;SDS011;10719;48.130;11.630;2022-10-16T10:06:43;0.90;;;0.50;;
21122;SDS011;10719;48.130;11.630;2022-10-16T10:12:17;3.25;;;1.02;;
21122;SDS011;10719;48.130;11.630;2022-10-16T10:14:57;2.65;;;0.80;;
21122;SDS011;10719;48.130;11.630;2022-10-16T10:17:29;2.15;;;1.10;;
21122;SDS011;10719;48.130;11.630;2022-10-16T10:30:32;3.92;;;0.52;;
21122;SDS011;10719;48.130;11.630;2022-10-16T10:38:57;3.53;;;1.35;;
21122;SDS011;10719;48.130;11.630;2022-10-16T11:01:13;5.15;;;2.13;;
21122;SDS011;10719;48.130;11.630;2022-10-16T11:06:18;1.55;;;0.70;;
21122;SDS011;10719;48.130;11.630;2022-10-16T11:11:26;3.05;;;1.25;;
21122;SDS011;10719;48.130;11.630;2022-10-16T11:16:39;4.07;;;1.83;;
21122;SDS011;10719;48.130;11.630;2022-10-16T11:22:39;2.45;;;1.10;;
21122;SDS011;10719;48.130;11.630;2022-10-16T11:25:16;0.85;;;0.65;;
21122;SDS011;10719;48.130;11.630;2022-10-16T11:30:27;3.08;;;0.70;;
21122;SDS011;10719;48.130;11.630;2022-10-16T11:41:15;1.83;;;0.80;;
21122;SDS011;10719;48.130;11.630;2022-10-16T11:44:42;1.33;;;0.57;;
21122;SDS011;10719;48.130;11.630;2022-10-16T11:50:09;1.48;;;0.80;;
21122;SDS011;10719;48.130;11.630;2022-10-16T11:52:48;1.70;;;0.60;;
21122;SDS011;10719;48.130;11.630;2022-10-16T11:55:20;2.05;;;0.75;;
21122;SDS011;10719;48.130;11.630;2022-10-16T11:57:49;0.63;;;0.43;;
21122;SDS011;10719;48.130;11.630;2022-10-16T12:00:20;1.15;;;0.57;;
21122;SDS011;10719;48.130;11.630;2022-10-16T12:02:55;2.92;;;0.80;;
21122;SDS011;10719;48.130;11.630;2022-10-16T12:08:44;1.95;;;0.57;;
21122;SDS011;10719;48.130;11.630;2022-10-16T12:14:59;0.57;;;0.50;;
21122;SDS011;10719;48.130;11.630;2022-10-16T12:19:22;1.27;;;0.70;;
21122;SDS011;10719;48.130;11.630;2022-10-16T12:21:49;1.88;;;0.50;;
21122;SDS011;10719;48.130;11.630;2022-10-16T12:26:57;0.63;;;0.32;;
21122;SDS011;10719;48.130;11.630;2022-10-16T12:29:28;0.88;;;0.50;;
21122;SDS011;10719;48.130;11.630;2022-10-16T12:32:05;0.85;;;0.30;;
21122;SDS011;10719;48.130;11.630;2022-10-16T12:34:50;0.22;;;0.22;;
21122;SDS011;10719;48.130;11.630;2022-10-16T12:37:21;2.88;;;0.40;;
21122;SDS011;10719;48.130;11.630;2022-10-16T12:39:53;2.05;;;0.28;;
21122;SDS011;10719;48.130;11.630;2022-10-16T12:42:31;0.63;;;0.30;;
21122;SDS011;10719;48.130;11.630;2022-10-16T12:44:58;1.58;;;0.63;;
21122;SDS011;10719;48.130;11.630;2022-10-16T12:49:57;1.25;;;0.50;;
21122;SDS011;10719;48.130;11.630;2022-10-16T12:52:41;1.92;;;0.52;;
21122;SDS011;10719;48.130;11.630;2022-10-16T12:55:13;1.30;;;0.50;;
21122;SDS011;10719;48.130;11.630;2022-10-16T12:58:05;1.10;;;0.65;;
21122;SDS011;10719;48.130;11.630;2022-10-16T13:06:26;0.93;;;0.50;;
21122;SDS011;10719;48.130;11.630;2022-10-16T13:18:21;0.88;;;0.50;;
21122;SDS011;10719;48.130;11.630;2022-10-16T13:29:32;0.85;;;0.60;;
21122;SDS011;10719;48.130;11.630;2022-10-16T13:31:59;0.38;;;0.30;;
21122;SDS011;10719;48.130;11.630;2022-10-16T13:34:31;0.68;;;0.35;;
21122;SDS011;10719;48.130;11.630;2022-10-16T13:36:57;0.95;;;0.50;;
21122;SDS011;10719;48.130;11.630;2022-10-16T13:42:01;1.88;;;0.55;;
21122;SDS011;10719;48.130;11.630;2022-10-16T13:44:28;3.85;;;0.73;;
21122;SDS011;10719;48.130;11.630;2022-10-16T13:47:01;1.15;;;0.40;;
21122;SDS011;10719;48.130;11.630;2022-10-16T13:49:27;2.05;;;0.73;;
21122;SDS011;10719;48.130;11.630;2022-10-16T13:51:54;0.85;;;0.40;;
21122;SDS011;10719;48.130;11.630;2022-10-16T13:54:21;0.40;;;0.40;;
21122;SDS011;10719;48.130;11.630;2022-10-16T13:56:47;1.13;;;0.45;;
21122;SDS011;10719;48.130;11.630;2022-10-16T14:01:48;0.88;;;0.60;;
21122;SDS011;10719;48.130;11.630;2022-10-16T14:04:16;1.02;;;0.50;;
21122;SDS011;10719;48.130;11.630;2022-10-16T14:06:42;1.83;;;0.65;;
21122;SDS011;10719;48.130;11.630;2022-10-16T14:11:55;1.33;;;0.60;;
21122;SDS011;10719;48.130;11.630;2022-10-16T14:14:26;0.45;;;0.40;;
21122;SDS011;10719;48.130;11.630;2022-10-16T14:17:00;1.10;;;0.55;;
21122;SDS011;10719;48.130;11.630;2022-10-16T14:19:28;1.20;;;0.60;;
21122;SDS011;10719;48.130;11.630;2022-10-16T14:21:55;0.85;;;0.52;;
21122;SDS011;10719;48.130;11.630;2022-10-16T14:24:26;7.72;;;0.70;;
21122;SDS011;10719;48.130;11.630;2022-10-16T14:26:56;2.72;;;0.65;;
21122;SDS011;10719;48.130;11.630;2022-10-16T14:29:23;2.50;;;1.15;;
21122;SDS011;10719;48.130;11.630;2022-10-16T14:32:06;2.10;;;0.70;;
21122;SDS011;10719;48.130;11.630;2022-10-16T14:34:52;1.02;;;0.65;;
21122;SDS011;10719;48.130;11.630;2022-10-16T14:37:25;2.58;;;0.85;;
21122;SDS011;10719;48.130;11.630;2022-10-16T14:39:53;1.88;;;0.60;;
21122;SDS011;10719;48.130;11.630;2022-10-16T14:42:20;1.70;;;0.85;;
21122;SDS011;10719;48.130;11.630;2022-10-16T14:44:49;1.75;;;0.63;;
21122;SDS011;10719;48.130;11.630;2022-10-16T14:47:18;1.45;;;0.60;;
21122;SDS011;10719;48.130;11.630;2022-10-16T14:49:48;1.30;;;0.70;;
21122;SDS011;10719;48.130;11.630;2022-10-16T14:52:14;1.52;;;0.63;;
21122;SDS011;10719;48.130;11.630;2022-10-16T14:54:40;0.85;;;0.52;;
21122;SDS011;10719;48.130;11.630;2022-10-16T14:57:13;1.38;;;0.80;;
21122;SDS011;10719;48.130;11.630;2022-10-16T14:59:42;1.15;;;0.65;;
21122;SDS011;10719;48.130;11.630;2022-10-16T15:04:47;2.00;;;0.90;;
21122;SDS011;10719;48.130;11.630;2022-10-16T15:07:13;1.77;;;0.80;;
21122;SDS011;10719;48.130;11.630;2022-10-16T15:09:39;2.25;;;0.70;;
21122;SDS011;10719;48.130;11.630;2022-10-16T15:12:05;2.90;;;0.98;;
21122;SDS011;10719;48.130;11.630;2022-10-16T15:14:30;0.93;;;0.57;;
21122;SDS011;10719;48.130;11.630;2022-10-16T15:16:56;2.03;;;0.95;;
21122;SDS011;10719;48.130;11.630;2022-10-16T15:19:22;1.10;;;0.60;;
21122;SDS011;10719;48.130;11.630;2022-10-16T15:21:47;2.58;;;0.85;;
21122;SDS011;10719;48.130;11.630;2022-10-16T15:24:14;1.88;;;0.73;;
21122;SDS011;10719;48.130;11.630;2022-10-16T15:26:40;1.63;;;0.80;;
21122;SDS011;10719;48.130;11.630;2022-10-16T15:29:05;2.38;;;0.75;;
21122;SDS011;10719;48.130;11.630;2022-10-16T15:31:31;0.95;;;0.63;;
21122;SDS011;10719;48.130;11.630;2022-10-16T15:33:57;0.90;;;0.30;;
21122;SDS011;10719;48.130;11.630;2022-10-16T15:36:29;3.30;;;0.60;;
21122;SDS011;10719;48.130;11.630;2022-10-16T15:38:59;3.72;;;1.00;;
21122;SDS011;10719;48.130;11.630;2022-10-16T15:41:25;2.05;;;0.82;;
21122;SDS011;10719;48.130;11.630;2022-10-16T15:43:51;3.05;;;0.77;;
21122;SDS011;10719;48.130;11.630;2022-10-16T15:46:18;11.23;;;1.05;;
21122;SDS011;10719;48.130;11.630;2022-10-16T15:48:45;2.17;;;0.80;;
21122;SDS011;10719;48.130;11.630;2022-10-16T15:51:11;1.00;;;0.55;;
21122;SDS011;10719;48.130;11.630;2022-10-16T15:53:37;4.13;;;1.02;;
21122;SDS011;10719;48.130;11.630;2022-10-16T15:56:05;2.50;;;0.73;;
21122;SDS011;10719;48.130;11.630;2022-10-16T15:58:32;1.08;;;0.52;;
21122;SDS011;10719;48.130;11.630;2022-10-16T16:00:59;2.95;;;0.93;;
21122;SDS011;10719;48.130;11.630;2022-10-16T16:03:26;1.83;;;0.68;;
21122;SDS011;10719;48.130;11.630;2022-10-16T16:05:53;1.40;;;0.85;;
21122;SDS011;10719;48.130;11.630;2022-10-16T16:08:19;5.40;;;1.15;;
21122;SDS011;10719;48.130;11.630;2022-10-16T16:10:45;1.73;;;0.82;;
21122;SDS011;10719;48.130;11.630;2022-10-16T16:13:10;2.22;;;0.85;;
21122;SDS011;10719;48.130;11.630;2022-10-16T16:15:39;2.63;;;0.80;;
21122;SDS011;10719;48.130;11.630;2022-10-16T16:18:05;2.78;;;1.08;;
21122;SDS011;10719;48.130;11.630;2022-10-16T16:20:31;2.70;;;0.85;;
21122;SDS011;10719;48.130;11.630;2022-10-16T16:22:57;1.50;;;0.80;;
21122;SDS011;10719;48.130;11.630;2022-10-16T16:25:22;1.38;;;0.80;;
21122;SDS011;10719;48.130;11.630;2022-10-16T16:27:48;4.30;;;1.27;;
21122;SDS011;10719;48.130;11.630;2022-10-16T16:30:14;1.05;;;0.77;;
21122;SDS011;10719;48.130;11.630;2022-10-16T16:32:39;1.42;;;0.77;;
21122;SDS011;10719;48.130;11.630;2022-10-16T16:35:05;2.72;;;0.95;;
21122;SDS011;10719;48.130;11.630;2022-10-16T16:37:31;1.80;;;0.70;;
21122;SDS011;10719;48.130;11.630;2022-10-16T16:39:57;2.85;;;0.82;;
21122;SDS011;10719;48.130;11.630;2022-10-16T16:42:26;3.13;;;1.25;;
21122;SDS011;10719;48.130;11.630;2022-10-16T16:44:52;2.83;;;1.08;;
21122;SDS011;10719;48.130;11.630;2022-10-16T16:47:17;4.03;;;1.30;;
21122;SDS011;10719;48.130;11.630;2022-10-16T16:49:43;2.08;;;1.05;;
21122;SDS011;10719;48.130;11.630;2022-10-16T16:52:09;4.47;;;1.40;;
21122;SDS011;10719;48.130;11.630;2022-10-16T16:54:34;4.80;;;1.77;;
21122;SDS011;10719;48.130;11.630;2022-10-16T16:57:00;5.68;;;1.35;;
21122;SDS011;10719;48.130;11.630;2022-10-16T16:59:26;2.25;;;1.23;;
21122;SDS011;10719;48.130;11.630;2022-10-16T17:01:51;9.68;;;1.65;;
21122;SDS011;10719;48.130;11.630;2022-10-16T17:04:17;3.13;;;1.13;;
21122;SDS011;10719;48.130;11.630;2022-10-16T17:06:44;4.25;;;1.40;;
21122;SDS011;10719;48.130;11.630;2022-10-16T17:09:10;4.22;;;1.38;;
21122;SDS011;10719;48.130;11.630;2022-10-16T17:11:38;2.60;;;1.23;;
21122;SDS011;10719;48.130;11.630;2022-10-16T17:14:06;3.78;;;1.23;;